Rexburg, ID (83440)

5:22 PM MDT on October 22, 2014 (GMT -0600)
ITD Thornton ID US | Change Station
CLOSE
Current Station
Personal Weather Station
Location: Rexburg, ID
Elevation: 4873 ft
Nearby Weather Stations

Elev 4873 ft 43.76 °N, 111.85 °W | Updated 52 minutes ago

Clear
Clear
54 °F
Feels Like 54 °F
N
8
Wind Variable Wind from SW
Gusts 9.0 mph

Today
High -- | Low -- °F
--% Chance of Precip.
Yesterday
High -- | Low -- °F
Precip. -- in
7:50 AM 6:32 PM
Waning Crescent, 1% visible
Pressure 30.17 in
Visibility 10.0 miles
Clouds Clear
Dew Point 24 °F
Humidity 31%
Rainfall 0.00 in
Snow Depth Not available.
UV 1 out of 12
Pollen 2.40 out of 12
Air Quality Not available.
Flu Activity Sporadic
METAR KRXE 222253Z AUTO 24009KT 10SM CLR 12/M05 A3017 RMK AO2 SLP215 T01171050

More Conditions Fewer Conditions

Pressure 30.17 in
Visibility 10.0 miles
Clouds Clear
Dew Point 24 °F
Humidity 31%
Rainfall 0.00 in
Snow Depth Not available.
UV 1 out of 12
Pollen 2.40 out of 12
Air Quality Not available.
Flu Activity Sporadic
METAR KRXE 222253Z AUTO 24009KT 10SM CLR 12/M05 A3017 RMK AO2 SLP215 T01171050

More Conditions Fewer Conditions

10-Day Weather Forecast

Almanac

Astronomy

Oct. 22, 2014 Rise Set
Actual Time 7:50 AM MDT 6:32 PM MDT
Civil Twilight 7:21 AM MDT 7:01 PM MDT
Nautical Twilight 6:47 AM MDT 7:34 PM MDT
Astronomical Twilight 6:14 AM MDT 8:08 PM MDT
Moon 6:32 AM MDT 6:02 PM MDT
Length of Visible Light 11h 40m
Length of Day
10h 41m
Tomorrow will be 2m 50s shorter.
Waning Crescent, 1% of the Moon is Illuminated
Today
Waning Crescent
Oct 23
New
Oct 30
First Quarter
Nov 6
Full
Nov 14
Last Quarter

Today's Extremes

State Highs State Lows

Community

WunderPhotos

Upload Photos

1,764,078 photos uploaded!

WunderBlogs® & News

Nearby

Air Quality

  Air Quality AQ Index Pollutant
Yesterday Good
PM2.5
Wednesday Good
PM2.5
Thursday Good
PM2.5
Friday Good
PM2.5

Snow Depth

Station Depth Elevation
Pine Creek Pass 0 in 6720 ft
Crab Creek 0 in 6860 ft
Sheep Mountain 0 in 6570 ft
Island Park 0 in 6290 ft
White Elephant 1 in 7710 ft

Earthquake Activity

City Distance Mag. Time & Date
No recent earthquake activity has been reported nearby.
Minimum magnitude displayed is 2.5.

Coastal Water Temperatures

Place Temperature
No Stations Reporting

Nearby Weather Stations